createdAt,value
2023-05-01T00:00:33.244Z,10.03
2023-05-01T00:02:04.988Z,8.17
2023-05-01T00:03:37.555Z,8.93
2023-05-01T00:05:09.835Z,9.77
2023-05-01T00:06:41.863Z,8.70
2023-05-01T00:08:13.965Z,9.37
2023-05-01T00:09:45.884Z,10.03
2023-05-01T00:11:18.257Z,7.77
2023-05-01T00:12:51.337Z,6.67
2023-05-01T00:14:23.236Z,5.80
2023-05-01T00:15:55.743Z,6.70
2023-05-01T00:17:28.315Z,7.80
2023-05-01T00:19:00.327Z,5.87
2023-05-01T00:20:32.278Z,6.07
2023-05-01T00:22:03.954Z,7.03
2023-05-01T00:23:36.143Z,7.47
2023-05-01T00:25:08.250Z,4.90
2023-05-01T00:26:39.939Z,5.63
2023-05-01T00:28:11.592Z,10.40
2023-05-01T00:29:43.544Z,11.77
2023-05-01T00:31:15.344Z,7.07
2023-05-01T00:32:47.380Z,13.00
2023-05-01T00:34:19.221Z,6.70
2023-05-01T00:35:52.693Z,12.53
2023-05-01T00:37:24.436Z,5.13
2023-05-01T00:38:56.140Z,5.70
2023-05-01T00:40:27.946Z,3.83
2023-05-01T00:41:59.626Z,8.50
2023-05-01T00:43:31.522Z,8.10
2023-05-01T00:45:04.073Z,6.93
2023-05-01T00:46:35.946Z,11.53
2023-05-01T00:48:09.249Z,4.10
2023-05-01T00:49:43.706Z,5.47
2023-05-01T00:51:15.589Z,5.83
2023-05-01T00:52:47.310Z,7.80
2023-05-01T00:54:19.944Z,10.50
2023-05-01T00:55:51.718Z,6.13
2023-05-01T00:57:23.589Z,4.00
2023-05-01T00:58:56.482Z,5.10
2023-05-01T01:00:29.316Z,4.57
2023-05-01T01:02:01.742Z,5.80
2023-05-01T01:03:33.380Z,6.30
2023-05-01T01:05:05.472Z,3.70
2023-05-01T01:06:50.791Z,3.97
2023-05-01T01:08:54.949Z,5.10
2023-05-01T01:10:33.457Z,3.57
2023-05-01T01:12:29.680Z,5.53
2023-05-01T01:14:13.558Z,3.90
2023-05-01T01:15:56.115Z,9.00
2023-05-01T01:17:31.594Z,7.00
2023-05-01T01:19:32.190Z,4.50
2023-05-01T01:21:16.662Z,5.87
2023-05-01T01:23:01.383Z,5.60
2023-05-01T01:25:11.687Z,4.70
2023-05-01T01:26:58.623Z,8.80
2023-05-01T01:28:42.120Z,4.37
2023-05-01T01:30:35.321Z,3.50
2023-05-01T01:32:27.146Z,6.70
2023-05-01T01:34:35.187Z,8.00
2023-05-01T01:36:11.894Z,4.37
2023-05-01T01:38:06.607Z,7.73
2023-05-01T01:39:49.388Z,6.00
2023-05-01T01:41:27.626Z,5.63
2023-05-01T01:43:10.450Z,5.80
2023-05-01T01:44:52.739Z,3.30
2023-05-01T01:46:26.716Z,5.90
2023-05-01T01:47:59.657Z,4.23
2023-05-01T01:49:34.792Z,4.50
2023-05-01T01:51:13.046Z,4.40
2023-05-01T01:52:49.305Z,5.43
2023-05-01T01:54:27.167Z,4.10
2023-05-01T01:56:03.570Z,4.23
2023-05-01T01:57:39.468Z,4.90
2023-05-01T01:59:11.998Z,3.30
2023-05-01T02:00:45.946Z,5.67
2023-05-01T02:02:20.611Z,4.17
2023-05-01T02:03:53.704Z,12.53
2023-05-01T02:05:26.827Z,3.50
2023-05-01T02:07:01.271Z,4.03
2023-05-01T02:08:35.898Z,5.27
2023-05-01T02:10:13.901Z,3.70
2023-05-01T02:11:48.299Z,5.73
2023-05-01T02:13:20.794Z,8.37
2023-05-01T02:14:53.830Z,3.20
2023-05-01T02:16:27.553Z,4.73
2023-05-01T02:18:02.453Z,4.70
2023-05-01T02:19:35.418Z,5.10
2023-05-01T02:21:07.372Z,6.63
2023-05-01T02:22:42.717Z,3.93
2023-05-01T02:24:15.251Z,5.80
2023-05-01T02:25:49.074Z,8.60
2023-05-01T02:27:23.608Z,5.67
2023-05-01T02:28:55.266Z,3.53
2023-05-01T02:30:27.447Z,4.73
2023-05-01T02:32:00.143Z,5.47
2023-05-01T02:33:31.898Z,4.77
2023-05-01T02:35:03.713Z,4.80
2023-05-01T02:36:35.522Z,5.90
2023-05-01T02:38:07.400Z,4.20
2023-05-01T02:39:40.009Z,4.73
2023-05-01T02:41:15.020Z,3.83
2023-05-01T02:42:49.307Z,5.50
2023-05-01T02:44:24.127Z,5.13
2023-05-01T02:45:58.666Z,4.57
2023-05-01T02:47:34.775Z,5.37
2023-05-01T02:49:07.342Z,6.33
2023-05-01T02:50:40.982Z,3.93
2023-05-01T02:52:13.105Z,3.27
2023-05-01T02:53:46.548Z,4.60
2023-05-01T02:55:25.012Z,4.87
2023-05-01T02:56:59.509Z,3.50
2023-05-01T02:58:34.297Z,4.80
2023-05-01T03:00:09.241Z,4.77
2023-05-01T03:01:40.990Z,5.43
2023-05-01T03:03:12.700Z,7.37
2023-05-01T03:04:44.588Z,4.87
2023-05-01T03:06:16.398Z,4.30
2023-05-01T03:07:48.319Z,4.07
2023-05-01T03:09:21.033Z,5.90
2023-05-01T03:10:52.677Z,5.83
2023-05-01T03:12:24.373Z,6.13
2023-05-01T03:13:56.408Z,3.30
2023-05-01T03:15:28.218Z,4.13
2023-05-01T03:16:59.927Z,6.77
2023-05-01T03:18:31.623Z,3.90
2023-05-01T03:20:06.111Z,4.10
2023-05-01T03:21:38.005Z,4.80
2023-05-01T03:23:09.988Z,8.33
2023-05-01T03:24:42.113Z,3.23
2023-05-01T03:26:13.848Z,7.17
2023-05-01T03:27:45.937Z,3.40
2023-05-01T03:29:17.715Z,4.70
2023-05-01T03:30:52.148Z,4.00
2023-05-01T03:32:23.997Z,3.67
2023-05-01T03:33:57.224Z,6.10
2023-05-01T03:35:29.205Z,5.13
2023-05-01T03:37:01.332Z,5.13
2023-05-01T03:38:33.366Z,4.50
2023-05-01T03:40:14.420Z,5.50
2023-05-01T03:42:21.318Z,3.63
2023-05-01T03:43:54.369Z,3.87
2023-05-01T03:45:37.181Z,3.20
2023-05-01T03:47:10.148Z,4.23
2023-05-01T03:48:45.539Z,3.10
2023-05-01T03:50:17.816Z,4.63
2023-05-01T03:51:51.898Z,5.43
2023-05-01T03:53:23.909Z,4.10
2023-05-01T03:54:55.830Z,4.37
2023-05-01T03:56:38.500Z,6.13
2023-05-01T03:58:11.345Z,2.83
2023-05-01T03:59:43.762Z,5.00
2023-05-01T04:01:16.193Z,2.77
2023-05-01T04:02:49.570Z,3.60
2023-05-01T04:04:26.442Z,10.50
2023-05-01T04:06:01.634Z,3.90
2023-05-01T04:07:33.339Z,2.93
2023-05-01T04:09:05.015Z,5.33
2023-05-01T04:10:36.656Z,3.77
2023-05-01T04:12:09.672Z,3.70
2023-05-01T04:13:41.415Z,4.83
2023-05-01T04:15:14.899Z,4.30
2023-05-01T04:16:47.564Z,4.10
2023-05-01T04:18:19.299Z,5.43
2023-05-01T04:19:51.083Z,3.70
2023-05-01T04:21:22.839Z,5.53
2023-05-01T04:22:57.022Z,8.40
2023-05-01T04:24:29.236Z,9.33
2023-05-01T04:26:00.977Z,14.23
2023-05-01T04:27:32.616Z,17.87
2023-05-01T04:29:04.643Z,19.30
2023-05-01T04:30:36.941Z,18.43
2023-05-01T04:32:08.654Z,14.57
2023-05-01T04:33:40.628Z,11.67
2023-05-01T04:35:12.464Z,10.73
2023-05-01T04:36:47.205Z,10.13
2023-05-01T04:38:19.027Z,9.80
2023-05-01T04:39:51.008Z,8.80
2023-05-01T04:41:24.000Z,12.00
2023-05-01T04:42:56.225Z,8.80
2023-05-01T04:44:28.150Z,6.00
2023-05-01T04:46:00.074Z,9.33
2023-05-01T04:47:31.873Z,7.40
2023-05-01T04:49:03.614Z,6.70
2023-05-01T04:50:35.398Z,10.10
2023-05-01T04:52:07.189Z,7.70
2023-05-01T04:53:53.746Z,6.93
2023-05-01T04:55:30.985Z,11.10
2023-05-01T04:57:16.085Z,19.07
2023-05-01T04:58:47.740Z,23.80
2023-05-01T05:00:23.733Z,18.60
2023-05-01T05:02:00.024Z,14.57
2023-05-01T05:03:32.338Z,14.17
2023-05-01T05:05:04.340Z,14.67
2023-05-01T05:06:36.575Z,11.97
2023-05-01T05:08:10.610Z,12.27
2023-05-01T05:09:50.358Z,12.47
2023-05-01T05:11:22.129Z,9.67
2023-05-01T05:12:53.823Z,7.33
2023-05-01T05:14:25.735Z,10.63
2023-05-01T05:15:57.500Z,9.37
2023-05-01T05:17:31.056Z,6.90
2023-05-01T05:19:03.041Z,10.90
2023-05-01T05:20:39.954Z,9.00
2023-05-01T05:22:12.455Z,11.60
2023-05-01T05:24:04.315Z,6.97
2023-05-01T05:25:36.174Z,5.90
2023-05-01T05:27:08.306Z,4.27
2023-05-01T05:28:40.790Z,7.03
2023-05-01T05:30:13.328Z,5.67
2023-05-01T05:31:45.493Z,7.20
2023-05-01T05:33:17.338Z,7.40
2023-05-01T05:34:49.403Z,6.47
2023-05-01T05:36:21.475Z,4.20
2023-05-01T05:37:54.546Z,4.47
2023-05-01T05:39:26.368Z,3.80
2023-05-01T05:40:59.201Z,3.50
2023-05-01T05:42:31.198Z,4.00
2023-05-01T05:44:08.242Z,4.20
2023-05-01T05:45:40.404Z,5.00
2023-05-01T05:47:12.159Z,7.87
2023-05-01T05:48:43.898Z,3.90
2023-05-01T05:50:15.864Z,5.00
2023-05-01T05:51:49.504Z,4.50
2023-05-01T05:53:22.968Z,3.43
2023-05-01T05:54:56.278Z,3.10
2023-05-01T05:56:27.961Z,3.60
2023-05-01T05:57:59.856Z,2.70
2023-05-01T05:59:31.801Z,3.00
2023-05-01T06:01:03.562Z,2.73
2023-05-01T06:02:35.358Z,4.77
2023-05-01T06:04:07.129Z,3.90
2023-05-01T06:05:43.815Z,2.40
2023-05-01T06:07:15.513Z,3.67
2023-05-01T06:08:47.216Z,3.07
2023-05-01T06:10:19.863Z,2.43
2023-05-01T06:11:51.590Z,3.90
2023-05-01T06:13:23.378Z,6.50
2023-05-01T06:14:55.635Z,2.57
2023-05-01T06:16:27.420Z,2.97
2023-05-01T06:17:59.352Z,2.83
2023-05-01T06:19:31.103Z,2.20
2023-05-01T06:21:10.967Z,3.40
2023-05-01T06:22:42.701Z,4.20
2023-05-01T06:24:25.842Z,5.17
2023-05-01T06:25:58.794Z,4.33
2023-05-01T06:27:30.454Z,3.00
2023-05-01T06:29:02.649Z,3.63
2023-05-01T06:30:34.416Z,5.33
2023-05-01T06:32:06.522Z,3.43
2023-05-01T06:33:38.516Z,2.57
2023-05-01T06:35:21.528Z,3.00
2023-05-01T06:36:53.381Z,2.80
2023-05-01T06:38:27.676Z,5.33
2023-05-01T06:39:59.590Z,5.20
2023-05-01T06:41:32.539Z,3.67
2023-05-01T06:43:04.886Z,3.70
2023-05-01T06:44:36.743Z,3.37
2023-05-01T06:46:08.394Z,3.47
2023-05-01T06:47:40.321Z,2.70
2023-05-01T06:49:13.904Z,5.23
2023-05-01T06:50:45.620Z,4.50
2023-05-01T06:52:17.264Z,2.80
2023-05-01T06:53:48.938Z,4.40
2023-05-01T06:55:22.060Z,4.47
2023-05-01T06:56:54.378Z,3.90
2023-05-01T06:58:26.081Z,3.30
2023-05-01T06:59:58.072Z,3.23
2023-05-01T07:01:30.804Z,4.37
2023-05-01T07:03:04.089Z,3.93
2023-05-01T07:04:35.820Z,6.80
2023-05-01T07:06:07.552Z,5.13
2023-05-01T07:07:44.579Z,4.83
2023-05-01T07:09:22.019Z,5.27
2023-05-01T07:10:54.016Z,3.93
2023-05-01T07:12:25.747Z,3.43
2023-05-01T07:13:57.713Z,2.77
2023-05-01T07:15:29.732Z,3.70
2023-05-01T07:17:02.135Z,2.80
2023-05-01T07:18:34.684Z,2.50
2023-05-01T07:20:07.076Z,3.23
2023-05-01T07:21:38.718Z,3.33
2023-05-01T07:23:10.343Z,3.33
2023-05-01T07:24:42.006Z,5.33
2023-05-01T07:26:13.722Z,3.00
2023-05-01T07:27:45.416Z,4.47
2023-05-01T07:29:17.138Z,2.30
2023-05-01T07:30:48.931Z,2.50
2023-05-01T07:32:20.930Z,2.10
2023-05-01T07:33:54.243Z,6.03
2023-05-01T07:35:26.050Z,5.67
2023-05-01T07:36:57.834Z,3.80
2023-05-01T07:38:29.484Z,2.80
2023-05-01T07:40:01.207Z,5.47
2023-05-01T07:41:32.881Z,3.80
2023-05-01T07:43:05.015Z,4.53
2023-05-01T07:44:36.685Z,2.70
2023-05-01T07:46:08.437Z,4.63
2023-05-01T07:47:40.197Z,2.50
2023-05-01T07:49:11.810Z,3.13
2023-05-01T07:50:43.598Z,3.90
2023-05-01T07:52:15.434Z,3.97
2023-05-01T07:53:48.553Z,3.90
2023-05-01T07:55:22.643Z,2.47
2023-05-01T07:56:54.584Z,2.70
2023-05-01T07:58:26.194Z,2.63
2023-05-01T07:59:58.104Z,2.90
2023-05-01T08:01:30.009Z,4.00
2023-05-01T08:03:02.047Z,4.13
2023-05-01T08:04:33.799Z,4.00
2023-05-01T08:06:06.363Z,2.90
2023-05-01T08:07:38.093Z,3.57
2023-05-01T08:09:09.775Z,2.40
2023-05-01T08:10:41.458Z,4.93
2023-05-01T08:12:13.734Z,4.50
2023-05-01T08:13:45.389Z,2.10
2023-05-01T08:15:17.099Z,2.27
2023-05-01T08:16:54.195Z,4.20
2023-05-01T08:18:25.907Z,8.00
2023-05-01T08:19:57.859Z,4.60
2023-05-01T08:21:29.749Z,2.83
2023-05-01T08:23:01.662Z,3.63
2023-05-01T08:24:33.322Z,3.80
2023-05-01T08:26:04.998Z,2.87
2023-05-01T08:27:36.711Z,2.70
2023-05-01T08:29:11.328Z,5.20
2023-05-01T08:30:44.320Z,2.87
2023-05-01T08:32:19.197Z,2.50
2023-05-01T08:33:50.973Z,2.73
2023-05-01T08:35:22.628Z,2.80
2023-05-01T08:36:54.419Z,3.00
2023-05-01T08:38:26.363Z,3.90
2023-05-01T08:39:58.187Z,2.60
2023-05-01T08:41:32.407Z,2.63
2023-05-01T08:43:04.597Z,2.93
2023-05-01T08:44:39.650Z,3.30
2023-05-01T08:46:15.647Z,8.13
2023-05-01T08:47:48.025Z,3.93
2023-05-01T08:49:22.586Z,6.70
2023-05-01T08:50:59.428Z,2.90
2023-05-01T08:52:33.303Z,3.07
2023-05-01T08:54:08.184Z,3.40
2023-05-01T08:55:43.758Z,2.60
2023-05-01T08:57:16.953Z,2.83
2023-05-01T08:58:49.883Z,2.30
2023-05-01T09:00:21.799Z,2.57
2023-05-01T09:01:53.521Z,3.37
2023-05-01T09:03:27.273Z,4.40
2023-05-01T09:05:01.746Z,2.60
2023-05-01T09:06:33.692Z,3.97
2023-05-01T09:08:05.400Z,2.40
2023-05-01T09:09:37.164Z,3.80
2023-05-01T09:11:09.604Z,2.60
2023-05-01T09:12:44.882Z,4.20
2023-05-01T09:14:19.866Z,2.70
2023-05-01T09:15:51.550Z,3.47
2023-05-01T09:17:24.246Z,3.63
2023-05-01T09:18:56.942Z,3.63
2023-05-01T09:20:29.040Z,2.50
2023-05-01T09:22:00.755Z,3.73
2023-05-01T09:23:32.940Z,3.40
2023-05-01T09:25:09.286Z,3.93
2023-05-01T09:26:41.892Z,2.40
2023-05-01T09:28:22.613Z,2.40
2023-05-01T09:29:54.466Z,2.57
2023-05-01T09:31:30.342Z,5.40
2023-05-01T09:33:12.803Z,3.83
2023-05-01T09:34:44.841Z,2.23
2023-05-01T09:36:18.250Z,2.60
2023-05-01T09:37:50.222Z,2.70
2023-05-01T09:39:24.952Z,2.53
2023-05-01T09:41:04.466Z,5.23
2023-05-01T09:42:41.621Z,4.00
2023-05-01T09:44:19.339Z,2.77
2023-05-01T09:46:12.975Z,3.80
2023-05-01T09:47:46.163Z,2.97
2023-05-01T09:49:17.839Z,8.40
2023-05-01T09:50:49.528Z,2.93
2023-05-01T09:52:21.218Z,5.83
2023-05-01T09:53:54.490Z,4.37
2023-05-01T09:55:26.233Z,3.67
2023-05-01T09:56:58.399Z,2.83
2023-05-01T09:58:30.264Z,2.87
2023-05-01T10:00:08.063Z,2.87
2023-05-01T10:01:45.295Z,3.17
2023-05-01T10:03:20.074Z,3.30
2023-05-01T10:04:59.182Z,2.57
2023-05-01T10:06:31.861Z,3.30
2023-05-01T10:08:05.725Z,2.27
2023-05-01T10:09:37.430Z,7.73
2023-05-01T10:11:09.085Z,2.87
2023-05-01T10:12:40.707Z,2.90
2023-05-01T10:14:12.579Z,2.60
2023-05-01T10:15:46.670Z,2.40
2023-05-01T10:17:21.604Z,3.13
2023-05-01T10:18:57.116Z,4.00
2023-05-01T10:20:29.219Z,3.73
2023-05-01T10:22:01.470Z,5.60
2023-05-01T10:23:33.240Z,2.80
2023-05-01T10:25:08.492Z,3.60
2023-05-01T10:26:41.894Z,3.10
2023-05-01T10:28:13.919Z,2.80
2023-05-01T10:29:48.916Z,4.40
2023-05-01T10:31:20.697Z,3.07
2023-05-01T10:32:52.931Z,4.60
2023-05-01T10:34:27.057Z,2.93
2023-05-01T10:36:01.604Z,3.03
2023-05-01T10:37:49.530Z,3.20
2023-05-01T10:39:35.656Z,3.27
2023-05-01T10:41:09.060Z,2.80
2023-05-01T10:43:31.968Z,2.63
2023-05-01T10:45:29.068Z,3.20
2023-05-01T10:47:20.755Z,3.67
2023-05-01T10:48:56.458Z,3.13
2023-05-01T10:50:28.759Z,3.47
2023-05-01T10:52:03.678Z,5.10
2023-05-01T10:53:35.333Z,5.73
2023-05-01T10:55:36.086Z,3.60
2023-05-01T10:57:07.834Z,3.57
2023-05-01T10:58:39.454Z,3.10
2023-05-01T11:00:11.720Z,3.00
2023-05-01T11:01:52.090Z,3.10
2023-05-01T11:03:24.363Z,3.53
2023-05-01T11:04:56.871Z,3.60
2023-05-01T11:06:29.224Z,3.13
2023-05-01T11:08:40.361Z,3.33
2023-05-01T11:10:27.512Z,3.17
2023-05-01T11:11:59.222Z,3.93
2023-05-01T11:14:02.744Z,3.13
2023-05-01T11:15:34.658Z,2.90
2023-05-01T11:17:06.369Z,3.20
2023-05-01T11:18:47.020Z,3.20
2023-05-01T11:20:25.059Z,3.20
2023-05-01T11:21:57.207Z,2.97
2023-05-01T11:23:28.926Z,7.03
2023-05-01T11:25:04.860Z,2.90
2023-05-01T11:26:42.170Z,2.70
2023-05-01T11:28:19.358Z,2.87
2023-05-01T11:29:51.285Z,4.50
2023-05-01T11:31:23.164Z,3.20
2023-05-01T11:32:54.954Z,3.57
2023-05-01T11:34:27.113Z,5.40
2023-05-01T11:36:00.263Z,3.80
2023-05-01T11:37:44.734Z,6.60
2023-05-01T11:39:17.456Z,3.57
2023-05-01T11:40:55.756Z,7.27
2023-05-01T11:42:27.511Z,3.97
2023-05-01T11:43:59.388Z,6.83
2023-05-01T11:45:32.056Z,3.10
2023-05-01T11:47:03.905Z,3.43
2023-05-01T11:48:35.863Z,3.90
2023-05-01T11:50:09.108Z,3.40
2023-05-01T11:51:40.964Z,3.30
2023-05-01T11:53:17.306Z,4.80
2023-05-01T11:54:49.012Z,4.50
2023-05-01T11:56:26.443Z,4.30
2023-05-01T11:58:00.272Z,3.90
2023-05-01T11:59:31.942Z,2.97
2023-05-01T12:01:04.057Z,3.20
2023-05-01T12:02:36.243Z,6.13
2023-05-01T12:04:08.696Z,4.53
2023-05-01T12:05:42.798Z,3.40
2023-05-01T12:07:22.156Z,3.37
2023-05-01T12:08:54.037Z,4.17
2023-05-01T12:10:25.804Z,4.83
2023-05-01T12:11:59.600Z,3.33
2023-05-01T12:13:31.405Z,6.93
2023-05-01T12:15:04.202Z,3.23
2023-05-01T12:16:37.697Z,5.07
2023-05-01T12:18:09.890Z,3.00
2023-05-01T12:19:48.782Z,6.63
2023-05-01T12:21:20.798Z,4.23
2023-05-01T12:22:52.473Z,3.90
2023-05-01T12:24:24.164Z,2.27
2023-05-01T12:25:56.048Z,3.10
2023-05-01T12:27:27.936Z,2.97
2023-05-01T12:29:02.033Z,3.37
2023-05-01T12:30:34.518Z,3.07
2023-05-01T12:32:08.098Z,3.80
2023-05-01T12:33:39.873Z,3.30
2023-05-01T12:35:15.960Z,3.00
2023-05-01T12:36:54.862Z,3.30
2023-05-01T12:38:26.741Z,3.57
2023-05-01T12:39:58.772Z,5.73
2023-05-01T12:41:43.285Z,3.33
2023-05-01T12:43:15.146Z,4.40
2023-05-01T12:44:46.980Z,3.27
2023-05-01T12:46:18.712Z,3.27
2023-05-01T12:47:50.635Z,3.30
2023-05-01T12:49:23.655Z,3.30
2023-05-01T12:50:55.813Z,3.33
2023-05-01T12:52:28.058Z,3.77
2023-05-01T12:53:59.776Z,2.93
2023-05-01T12:55:34.084Z,2.70
2023-05-01T12:57:14.535Z,3.43
2023-05-01T12:58:46.312Z,4.03
2023-05-01T13:00:18.916Z,2.90
2023-05-01T13:01:59.060Z,2.83
2023-05-01T13:03:31.354Z,4.30
2023-05-01T13:05:07.872Z,4.40
2023-05-01T13:06:39.791Z,4.87
2023-05-01T13:08:11.486Z,2.97
2023-05-01T13:09:58.516Z,2.53
2023-05-01T13:11:30.475Z,2.47
2023-05-01T13:13:02.261Z,2.90
2023-05-01T13:14:39.414Z,2.10
2023-05-01T13:16:16.039Z,2.80
2023-05-01T13:17:48.097Z,2.80
2023-05-01T13:19:30.078Z,4.70
2023-05-01T13:21:09.652Z,2.90
2023-05-01T13:22:41.600Z,2.97
2023-05-01T13:24:15.175Z,2.77
2023-05-01T13:25:47.804Z,2.70
2023-05-01T13:27:21.626Z,3.10
2023-05-01T13:28:53.612Z,3.40
2023-05-01T13:30:32.663Z,6.13
2023-05-01T13:32:08.470Z,7.83
2023-05-01T13:33:42.260Z,6.50
2023-05-01T13:35:25.355Z,3.13
2023-05-01T13:36:58.202Z,3.27
2023-05-01T13:38:34.228Z,4.13
2023-05-01T13:40:06.618Z,3.17
2023-05-01T13:41:42.408Z,2.63
2023-05-01T13:43:16.170Z,2.40
2023-05-01T13:44:52.095Z,3.20
2023-05-01T13:46:26.860Z,5.63
2023-05-01T13:47:58.806Z,4.60
2023-05-01T13:49:31.080Z,4.10
2023-05-01T13:51:02.996Z,4.43
2023-05-01T13:52:43.323Z,2.93
2023-05-01T13:54:16.617Z,3.53
2023-05-01T13:55:48.360Z,5.63
2023-05-01T13:57:19.980Z,3.00
2023-05-01T13:58:51.760Z,3.23
2023-05-01T14:00:23.501Z,4.47
2023-05-01T14:01:55.269Z,2.27
2023-05-01T14:03:27.293Z,2.50
2023-05-01T14:05:00.923Z,5.70
2023-05-01T14:06:36.473Z,2.40
2023-05-01T14:08:08.855Z,2.53
2023-05-01T14:09:43.890Z,2.00
2023-05-01T14:11:16.101Z,4.30
2023-05-01T14:12:47.932Z,2.40
2023-05-01T14:14:19.938Z,2.27
2023-05-01T14:15:51.698Z,2.40
2023-05-01T14:17:31.344Z,4.80
2023-05-01T14:19:03.157Z,5.73
2023-05-01T14:20:34.789Z,2.73
2023-05-01T14:22:09.600Z,6.13
2023-05-01T14:23:45.094Z,3.57
2023-05-01T14:25:25.125Z,2.63
2023-05-01T14:26:57.696Z,1.80
2023-05-01T14:28:30.311Z,3.77
2023-05-01T14:30:08.443Z,2.93
2023-05-01T14:31:40.938Z,1.97
2023-05-01T14:33:13.869Z,2.30
2023-05-01T14:34:45.995Z,2.77
2023-05-01T14:36:18.709Z,6.47
2023-05-01T14:37:50.719Z,4.30
2023-05-01T14:39:22.746Z,3.50
2023-05-01T14:41:13.024Z,2.00
2023-05-01T14:42:45.737Z,5.57
2023-05-01T14:44:20.386Z,2.90
2023-05-01T14:45:52.537Z,2.60
2023-05-01T14:47:24.253Z,3.50
2023-05-01T14:48:56.672Z,2.90
2023-05-01T14:50:28.557Z,5.43
2023-05-01T14:52:00.251Z,2.50
2023-05-01T14:53:32.771Z,3.47
2023-05-01T14:55:04.890Z,2.80
2023-05-01T14:56:36.702Z,2.10
2023-05-01T14:58:08.495Z,2.97
2023-05-01T14:59:40.860Z,2.67
2023-05-01T15:01:13.953Z,4.50
2023-05-01T15:02:46.016Z,2.43
2023-05-01T15:04:18.410Z,2.50
2023-05-01T15:05:50.343Z,2.70
2023-05-01T15:07:22.625Z,2.97
2023-05-01T15:08:54.369Z,2.37
2023-05-01T15:10:26.501Z,2.50
2023-05-01T15:11:58.353Z,3.83
2023-05-01T15:13:31.665Z,3.20
2023-05-01T15:15:03.718Z,5.80
2023-05-01T15:16:35.537Z,3.67
2023-05-01T15:18:07.311Z,7.00
2023-05-01T15:19:39.075Z,6.80
2023-05-01T15:21:10.819Z,3.90
2023-05-01T15:22:42.486Z,3.63
2023-05-01T15:24:14.209Z,3.10
2023-05-01T15:25:47.548Z,3.03
2023-05-01T15:27:19.285Z,3.33
2023-05-01T15:28:51.188Z,3.20
2023-05-01T15:30:22.967Z,3.37
2023-05-01T15:32:08.133Z,3.93
2023-05-01T15:33:43.067Z,4.97
2023-05-01T15:35:14.982Z,5.43
2023-05-01T15:36:46.795Z,3.50
2023-05-01T15:38:20.750Z,4.97
2023-05-01T15:39:52.897Z,5.37
2023-05-01T15:41:25.486Z,2.70
2023-05-01T15:42:57.665Z,3.50
2023-05-01T15:44:29.322Z,4.27
2023-05-01T15:46:01.181Z,3.30
2023-05-01T15:47:33.044Z,3.00
2023-05-01T15:49:09.669Z,3.47
2023-05-01T15:50:41.367Z,4.13
2023-05-01T15:52:13.393Z,7.93
2023-05-01T15:53:45.285Z,3.20
2023-05-01T15:55:20.312Z,2.70
2023-05-01T15:56:52.506Z,3.10
2023-05-01T15:58:24.748Z,2.47
2023-05-01T15:59:56.607Z,2.20
2023-05-01T16:01:28.462Z,2.30
2023-05-01T16:03:02.813Z,2.50
2023-05-01T16:04:34.801Z,2.67
2023-05-01T16:06:06.601Z,2.00
2023-05-01T16:07:39.804Z,3.43
2023-05-01T16:09:12.748Z,2.20
2023-05-01T16:10:44.943Z,3.00
2023-05-01T16:12:16.696Z,3.07
2023-05-01T16:13:48.450Z,2.70
2023-05-01T16:15:20.297Z,2.10
2023-05-01T16:16:52.308Z,2.37
2023-05-01T16:18:24.886Z,3.50
2023-05-01T16:19:56.964Z,2.73
2023-05-01T16:21:29.040Z,2.67
2023-05-01T16:23:00.745Z,2.43
2023-05-01T16:24:33.597Z,2.33
2023-05-01T16:26:06.058Z,2.23
2023-05-01T16:27:43.964Z,2.43
2023-05-01T16:29:16.178Z,2.37
2023-05-01T16:30:48.012Z,1.70
2023-05-01T16:32:20.686Z,2.23
2023-05-01T16:33:53.739Z,2.27
2023-05-01T16:35:27.583Z,2.70
2023-05-01T16:36:59.255Z,1.83
2023-05-01T16:38:31.407Z,2.20
2023-05-01T16:40:04.401Z,2.03
2023-05-01T16:41:45.983Z,2.43
2023-05-01T16:43:17.743Z,1.70
2023-05-01T16:44:49.386Z,1.97
2023-05-01T16:46:21.196Z,1.90
2023-05-01T16:47:52.886Z,2.60
2023-05-01T16:49:27.405Z,1.80
2023-05-01T16:50:59.135Z,2.20
2023-05-01T16:52:30.834Z,2.03
2023-05-01T16:54:02.478Z,2.90
2023-05-01T16:55:34.178Z,1.70
2023-05-01T16:57:05.932Z,1.80
2023-05-01T16:58:37.629Z,2.63
2023-05-01T17:00:10.185Z,2.47
2023-05-01T17:01:42.043Z,2.30
2023-05-01T17:03:14.796Z,2.00
2023-05-01T17:04:46.670Z,2.30
2023-05-01T17:06:18.478Z,2.17
2023-05-01T17:07:50.344Z,3.23
2023-05-01T17:09:22.019Z,3.43
2023-05-01T17:11:00.765Z,2.73
2023-05-01T17:12:32.642Z,2.43
2023-05-01T17:14:04.293Z,2.67
2023-05-01T17:15:36.000Z,4.43
2023-05-01T17:17:09.580Z,4.03
2023-05-01T17:18:41.433Z,3.20
2023-05-01T17:20:13.880Z,3.37
2023-05-01T17:21:45.847Z,3.23
2023-05-01T17:23:17.563Z,2.67
2023-05-01T17:24:50.504Z,4.07
2023-05-01T17:26:22.736Z,2.90
2023-05-01T17:27:54.975Z,2.70
2023-05-01T17:29:27.425Z,2.47
2023-05-01T17:30:59.125Z,2.60
2023-05-01T17:32:37.123Z,2.27
2023-05-01T17:34:09.452Z,2.50
2023-05-01T17:35:41.326Z,2.57
2023-05-01T17:37:13.113Z,2.93
2023-05-01T17:38:44.806Z,3.00
2023-05-01T17:40:16.507Z,4.03
2023-05-01T17:41:51.057Z,2.73
2023-05-01T17:43:22.753Z,2.23
2023-05-01T17:44:54.425Z,2.60
2023-05-01T17:46:26.635Z,2.70
2023-05-01T17:47:58.459Z,3.57
2023-05-01T17:49:30.135Z,2.60
2023-05-01T17:51:01.876Z,2.80
2023-05-01T17:52:33.612Z,2.97
2023-05-01T17:54:05.836Z,2.87
2023-05-01T17:55:38.917Z,2.57
2023-05-01T17:57:10.789Z,3.47
2023-05-01T17:58:42.507Z,2.13
2023-05-01T18:00:14.553Z,2.50
2023-05-01T18:01:46.224Z,3.40
2023-05-01T18:03:18.086Z,3.10
2023-05-01T18:04:50.943Z,2.47
2023-05-01T18:06:22.739Z,3.30
2023-05-01T18:07:54.503Z,2.80
2023-05-01T18:09:26.143Z,2.80
2023-05-01T18:10:57.830Z,2.63
2023-05-01T18:12:29.979Z,2.93
2023-05-01T18:14:02.814Z,4.07
2023-05-01T18:15:37.056Z,2.80
2023-05-01T18:17:09.913Z,3.00
2023-05-01T18:18:43.388Z,5.90
2023-05-01T18:20:15.634Z,5.73
2023-05-01T18:21:47.333Z,14.33
2023-05-01T18:23:19.891Z,3.80
2023-05-01T18:24:52.610Z,4.60
2023-05-01T18:26:26.943Z,4.20
2023-05-01T18:27:59.472Z,6.90
2023-05-01T18:29:31.356Z,3.67
2023-05-01T18:31:04.145Z,3.87
2023-05-01T18:32:47.425Z,4.07
2023-05-01T18:34:20.621Z,3.50
2023-05-01T18:35:52.716Z,4.50
2023-05-01T18:37:25.788Z,3.10
2023-05-01T18:38:57.512Z,5.10
2023-05-01T18:40:29.948Z,4.30
2023-05-01T18:42:03.445Z,4.47
2023-05-01T18:43:35.384Z,3.90
2023-05-01T18:45:07.914Z,3.73
2023-05-01T18:46:39.662Z,5.87
2023-05-01T18:48:11.334Z,4.10
2023-05-01T18:49:43.039Z,3.60
2023-05-01T18:51:14.822Z,7.87
2023-05-01T18:52:46.485Z,6.70
2023-05-01T18:54:18.207Z,6.23
2023-05-01T18:55:50.530Z,4.23
2023-05-01T18:57:22.850Z,5.27
2023-05-01T18:58:54.806Z,4.30
2023-05-01T19:00:27.926Z,4.20
2023-05-01T19:01:59.976Z,4.10
2023-05-01T19:03:32.847Z,4.00
2023-05-01T19:05:06.188Z,6.07
2023-05-01T19:06:40.853Z,4.17
2023-05-01T19:08:13.752Z,4.40
2023-05-01T19:09:45.899Z,11.73
2023-05-01T19:11:17.536Z,5.50
2023-05-01T19:12:49.438Z,5.20
2023-05-01T19:14:21.557Z,3.73
2023-05-01T19:15:53.490Z,4.80
2023-05-01T19:17:25.859Z,5.20
2023-05-01T19:18:57.567Z,4.20
2023-05-01T19:20:29.285Z,5.20
2023-05-01T19:22:00.948Z,4.60
2023-05-01T19:23:35.294Z,5.67
2023-05-01T19:25:08.086Z,4.27
2023-05-01T19:26:39.709Z,4.10
2023-05-01T19:28:11.424Z,4.77
2023-05-01T19:29:43.118Z,4.30
2023-05-01T19:31:16.167Z,5.87
2023-05-01T19:32:47.984Z,4.07
2023-05-01T19:34:20.667Z,4.63
2023-05-01T19:35:52.436Z,4.67
2023-05-01T19:37:26.597Z,5.20
2023-05-01T19:38:58.289Z,4.70
2023-05-01T19:40:29.993Z,4.60
2023-05-01T19:42:02.269Z,6.00
2023-05-01T19:43:36.517Z,6.30
2023-05-01T19:45:08.752Z,4.33
2023-05-01T19:46:40.579Z,5.03
2023-05-01T19:48:12.342Z,3.70
2023-05-01T19:49:44.979Z,4.40
2023-05-01T19:51:16.649Z,5.80
2023-05-01T19:52:48.318Z,4.00
2023-05-01T19:54:22.158Z,4.50
2023-05-01T19:55:56.129Z,4.63
2023-05-01T19:57:28.434Z,6.27
2023-05-01T19:59:00.431Z,6.23
2023-05-01T20:00:32.160Z,4.63
2023-05-01T20:02:04.385Z,6.50
2023-05-01T20:03:36.229Z,5.00
2023-05-01T20:05:08.329Z,6.10
2023-05-01T20:06:40.122Z,4.60
2023-05-01T20:08:12.726Z,4.90
2023-05-01T20:09:44.627Z,4.70
2023-05-01T20:11:16.566Z,4.33
2023-05-01T20:12:48.257Z,4.13
2023-05-01T20:14:19.986Z,4.87
2023-05-01T20:15:51.827Z,6.53
2023-05-01T20:17:23.570Z,6.57
2023-05-01T20:18:55.726Z,6.73
2023-05-01T20:20:27.531Z,7.23
2023-05-01T20:21:59.214Z,5.53
2023-05-01T20:23:30.887Z,6.80
2023-05-01T20:25:02.537Z,14.10
2023-05-01T20:26:34.464Z,5.83
2023-05-01T20:28:07.612Z,7.23
2023-05-01T20:29:43.303Z,7.73
2023-05-01T20:31:35.781Z,7.17
2023-05-01T20:33:07.860Z,9.40
2023-05-01T20:34:39.592Z,11.33
2023-05-01T20:36:11.291Z,12.90
2023-05-01T20:37:42.950Z,6.33
2023-05-01T20:39:14.755Z,6.40
2023-05-01T20:40:46.404Z,7.20
2023-05-01T20:42:18.104Z,7.10
2023-05-01T20:43:49.814Z,7.60
2023-05-01T20:45:21.655Z,6.67
2023-05-01T20:46:53.608Z,7.40
2023-05-01T20:48:25.793Z,7.37